sensor_id;sensor_type;location;lat;lon;timestamp;temperature;humidity
15203;DHT22;7702;51.046;5.184;2022-10-17T00:01:12;14.60;99.90
15203;DHT22;7702;51.046;5.184;2022-10-17T00:03:39;14.60;99.90
15203;DHT22;7702;51.046;5.184;2022-10-17T00:06:07;14.70;99.90
15203;DHT22;7702;51.046;5.184;2022-10-17T00:08:33;14.70;99.90
15203;DHT22;7702;51.046;5.184;2022-10-17T00:11:02;14.60;99.90
15203;DHT22;7702;51.046;5.184;2022-10-17T00:13:29;14.70;99.90
15203;DHT22;7702;51.046;5.184;2022-10-17T00:15:55;14.60;99.90
15203;DHT22;7702;51.046;5.184;2022-10-17T00:18:21;14.60;99.90
15203;DHT22;7702;51.046;5.184;2022-10-17T00:20:47;14.70;99.90
15203;DHT22;7702;51.046;5.184;2022-10-17T00:23:13;14.70;99.90
15203;DHT22;7702;51.046;5.184;2022-10-17T00:25:39;14.70;99.90
15203;DHT22;7702;51.046;5.184;2022-10-17T00:28:07;14.70;99.90
15203;DHT22;7702;51.046;5.184;2022-10-17T00:30:33;14.70;99.90
15203;DHT22;7702;51.046;5.184;2022-10-17T00:32:59;14.70;99.90
15203;DHT22;7702;51.046;5.184;2022-10-17T00:35:24;14.70;99.90
15203;DHT22;7702;51.046;5.184;2022-10-17T00:37:50;14.70;99.90
15203;DHT22;7702;51.046;5.184;2022-10-17T00:40:16;14.70;99.90
15203;DHT22;7702;51.046;5.184;2022-10-17T00:42:42;14.70;99.90
15203;DHT22;7702;51.046;5.184;2022-10-17T00:47:40;14.80;99.90
15203;DHT22;7702;51.046;5.184;2022-10-17T00:50:07;14.80;99.90
15203;DHT22;7702;51.046;5.184;2022-10-17T00:52:35;14.80;99.90
15203;DHT22;7702;51.046;5.184;2022-10-17T00:55:07;14.90;99.90
15203;DHT22;7702;51.046;5.184;2022-10-17T00:57:33;14.90;99.90
15203;DHT22;7702;51.046;5.184;2022-10-17T01:00:03;14.90;99.90
15203;DHT22;7702;51.046;5.184;2022-10-17T01:02:29;15.00;99.90
15203;DHT22;7702;51.046;5.184;2022-10-17T01:04:56;15.00;99.90
15203;DHT22;7702;51.046;5.184;2022-10-17T01:07:24;15.00;99.90
15203;DHT22;7702;51.046;5.184;2022-10-17T01:09:50;15.00;99.90
15203;DHT22;7702;51.046;5.184;2022-10-17T01:12:44;15.10;99.90
15203;DHT22;7702;51.046;5.184;2022-10-17T01:27:22;15.20;99.90
15203;DHT22;7702;51.046;5.184;2022-10-17T01:32:36;15.20;99.90
15203;DHT22;7702;51.046;5.184;2022-10-17T01:38:09;15.20;99.90
15203;DHT22;7702;51.046;5.184;2022-10-17T01:40:43;15.20;99.90
15203;DHT22;7702;51.046;5.184;2022-10-17T01:43:21;15.30;99.90
15203;DHT22;7702;51.046;5.184;2022-10-17T01:48:36;15.30;99.90
15203;DHT22;7702;51.046;5.184;2022-10-17T01:51:10;15.40;99.90
15203;DHT22;7702;51.046;5.184;2022-10-17T01:53:41;15.40;99.90
15203;DHT22;7702;51.046;5.184;2022-10-17T01:56:11;15.30;99.90
15203;DHT22;7702;51.046;5.184;2022-10-17T01:58:50;15.30;99.90
15203;DHT22;7702;51.046;5.184;2022-10-17T02:01:18;15.40;99.90
15203;DHT22;7702;51.046;5.184;2022-10-17T02:03:46;15.40;99.90
15203;DHT22;7702;51.046;5.184;2022-10-17T02:06:13;15.40;99.90
15203;DHT22;7702;51.046;5.184;2022-10-17T02:08:44;15.50;99.90
15203;DHT22;7702;51.046;5.184;2022-10-17T02:11:30;15.50;99.90
15203;DHT22;7702;51.046;5.184;2022-10-17T02:14:34;15.60;99.90
15203;DHT22;7702;51.046;5.184;2022-10-17T02:27:41;15.70;99.90
15203;DHT22;7702;51.046;5.184;2022-10-17T02:30:22;15.70;99.90
15203;DHT22;7702;51.046;5.184;2022-10-17T02:35:20;15.60;99.90
15203;DHT22;7702;51.046;5.184;2022-10-17T02:37:47;15.60;99.90
15203;DHT22;7702;51.046;5.184;2022-10-17T02:40:16;15.60;99.90
15203;DHT22;7702;51.046;5.184;2022-10-17T02:42:43;15.60;99.90
15203;DHT22;7702;51.046;5.184;2022-10-17T02:45:11;15.60;99.90
15203;DHT22;7702;51.046;5.184;2022-10-17T02:47:55;15.60;99.90
15203;DHT22;7702;51.046;5.184;2022-10-17T02:50:32;15.60;99.90
15203;DHT22;7702;51.046;5.184;2022-10-17T02:53:08;15.60;99.90
15203;DHT22;7702;51.046;5.184;2022-10-17T02:55:40;15.70;99.90
15203;DHT22;7702;51.046;5.184;2022-10-17T02:58:12;15.70;99.90
15203;DHT22;7702;51.046;5.184;2022-10-17T03:00:40;15.70;99.90
15203;DHT22;7702;51.046;5.184;2022-10-17T03:03:28;15.70;99.90
15203;DHT22;7702;51.046;5.184;2022-10-17T03:05:53;15.70;99.90
15203;DHT22;7702;51.046;5.184;2022-10-17T03:08:20;15.70;99.90
15203;DHT22;7702;51.046;5.184;2022-10-17T03:10:46;15.70;99.90
15203;DHT22;7702;51.046;5.184;2022-10-17T03:13:12;15.70;99.90
15203;DHT22;7702;51.046;5.184;2022-10-17T03:15:38;15.70;99.90
15203;DHT22;7702;51.046;5.184;2022-10-17T03:18:03;15.70;99.90
15203;DHT22;7702;51.046;5.184;2022-10-17T03:20:29;15.70;99.90
15203;DHT22;7702;51.046;5.184;2022-10-17T03:22:55;15.70;99.90
15203;DHT22;7702;51.046;5.184;2022-10-17T03:25:21;15.70;99.90
15203;DHT22;7702;51.046;5.184;2022-10-17T03:27:46;15.60;99.90
15203;DHT22;7702;51.046;5.184;2022-10-17T03:30:12;15.60;99.90
15203;DHT22;7702;51.046;5.184;2022-10-17T03:32:38;15.70;99.90
15203;DHT22;7702;51.046;5.184;2022-10-17T03:35:04;15.80;99.90
15203;DHT22;7702;51.046;5.184;2022-10-17T03:37:30;15.90;99.90
15203;DHT22;7702;51.046;5.184;2022-10-17T03:39:56;15.90;99.90
15203;DHT22;7702;51.046;5.184;2022-10-17T03:42:22;15.90;99.90
15203;DHT22;7702;51.046;5.184;2022-10-17T03:44:48;15.90;99.90
15203;DHT22;7702;51.046;5.184;2022-10-17T03:47:14;16.00;99.90
15203;DHT22;7702;51.046;5.184;2022-10-17T03:49:39;16.00;99.90
15203;DHT22;7702;51.046;5.184;2022-10-17T03:52:05;16.00;99.90
15203;DHT22;7702;51.046;5.184;2022-10-17T03:54:30;16.00;99.90
15203;DHT22;7702;51.046;5.184;2022-10-17T03:56:56;16.10;99.90
15203;DHT22;7702;51.046;5.184;2022-10-17T03:59:22;16.10;99.90
15203;DHT22;7702;51.046;5.184;2022-10-17T04:01:47;16.00;99.90
15203;DHT22;7702;51.046;5.184;2022-10-17T04:04:13;16.10;99.90
15203;DHT22;7702;51.046;5.184;2022-10-17T04:06:39;16.10;99.90
15203;DHT22;7702;51.046;5.184;2022-10-17T04:09:06;16.10;99.90
15203;DHT22;7702;51.046;5.184;2022-10-17T04:11:32;16.10;99.90
15203;DHT22;7702;51.046;5.184;2022-10-17T04:13:58;16.00;99.90
15203;DHT22;7702;51.046;5.184;2022-10-17T04:16:24;16.00;99.90
15203;DHT22;7702;51.046;5.184;2022-10-17T04:18:55;16.00;99.90
15203;DHT22;7702;51.046;5.184;2022-10-17T04:21:22;15.90;99.90
15203;DHT22;7702;51.046;5.184;2022-10-17T04:23:54;15.90;99.90
15203;DHT22;7702;51.046;5.184;2022-10-17T04:26:20;15.90;99.90
15203;DHT22;7702;51.046;5.184;2022-10-17T04:28:46;15.80;99.90
15203;DHT22;7702;51.046;5.184;2022-10-17T04:31:13;15.80;99.90
15203;DHT22;7702;51.046;5.184;2022-10-17T04:33:39;15.80;99.90
15203;DHT22;7702;51.046;5.184;2022-10-17T04:36:09;15.90;99.90
15203;DHT22;7702;51.046;5.184;2022-10-17T04:38:35;15.90;99.90
15203;DHT22;7702;51.046;5.184;2022-10-17T04:41:03;15.90;99.90
15203;DHT22;7702;51.046;5.184;2022-10-17T04:43:34;15.90;99.90
15203;DHT22;7702;51.046;5.184;2022-10-17T04:46:02;15.90;99.90
15203;DHT22;7702;51.046;5.184;2022-10-17T04:48:28;15.90;99.90
15203;DHT22;7702;51.046;5.184;2022-10-17T04:50:59;15.90;99.90
15203;DHT22;7702;51.046;5.184;2022-10-17T04:53:27;15.80;99.90
15203;DHT22;7702;51.046;5.184;2022-10-17T04:55:53;15.80;99.90
15203;DHT22;7702;51.046;5.184;2022-10-17T04:58:19;15.90;99.90
15203;DHT22;7702;51.046;5.184;2022-10-17T05:00:45;16.00;99.90
15203;DHT22;7702;51.046;5.184;2022-10-17T05:03:11;16.00;99.90
15203;DHT22;7702;51.046;5.184;2022-10-17T05:05:37;15.90;99.90
15203;DHT22;7702;51.046;5.184;2022-10-17T05:08:04;15.90;99.90
15203;DHT22;7702;51.046;5.184;2022-10-17T05:10:34;15.90;99.90
15203;DHT22;7702;51.046;5.184;2022-10-17T05:13:00;15.90;99.90
15203;DHT22;7702;51.046;5.184;2022-10-17T05:15:25;15.90;99.90
15203;DHT22;7702;51.046;5.184;2022-10-17T05:17:54;15.90;99.90
15203;DHT22;7702;51.046;5.184;2022-10-17T05:20:20;15.90;99.90
15203;DHT22;7702;51.046;5.184;2022-10-17T05:22:46;15.80;99.90
15203;DHT22;7702;51.046;5.184;2022-10-17T05:25:11;15.80;99.90
15203;DHT22;7702;51.046;5.184;2022-10-17T05:27:37;15.80;99.90
15203;DHT22;7702;51.046;5.184;2022-10-17T05:30:04;15.80;99.90
15203;DHT22;7702;51.046;5.184;2022-10-17T05:32:30;15.80;99.90
15203;DHT22;7702;51.046;5.184;2022-10-17T05:34:56;15.90;99.90
15203;DHT22;7702;51.046;5.184;2022-10-17T05:37:23;15.90;99.90
15203;DHT22;7702;51.046;5.184;2022-10-17T05:39:49;15.90;99.90
15203;DHT22;7702;51.046;5.184;2022-10-17T05:42:15;15.90;99.90
15203;DHT22;7702;51.046;5.184;2022-10-17T05:44:40;15.90;99.90
15203;DHT22;7702;51.046;5.184;2022-10-17T05:47:07;15.90;99.90
15203;DHT22;7702;51.046;5.184;2022-10-17T05:49:33;15.90;99.90
15203;DHT22;7702;51.046;5.184;2022-10-17T05:51:59;15.80;99.90
15203;DHT22;7702;51.046;5.184;2022-10-17T05:54:24;15.80;99.90
15203;DHT22;7702;51.046;5.184;2022-10-17T05:56:51;15.80;99.90
15203;DHT22;7702;51.046;5.184;2022-10-17T05:59:17;15.80;99.90
15203;DHT22;7702;51.046;5.184;2022-10-17T06:01:43;15.90;99.90
15203;DHT22;7702;51.046;5.184;2022-10-17T06:04:09;15.90;99.90
15203;DHT22;7702;51.046;5.184;2022-10-17T06:06:36;15.90;99.90
15203;DHT22;7702;51.046;5.184;2022-10-17T06:09:02;15.90;99.90
15203;DHT22;7702;51.046;5.184;2022-10-17T06:11:30;16.00;99.90
15203;DHT22;7702;51.046;5.184;2022-10-17T06:13:55;16.00;99.90
15203;DHT22;7702;51.046;5.184;2022-10-17T06:16:21;16.10;99.90
15203;DHT22;7702;51.046;5.184;2022-10-17T06:18:47;16.10;99.90
15203;DHT22;7702;51.046;5.184;2022-10-17T06:21:18;16.10;99.90
15203;DHT22;7702;51.046;5.184;2022-10-17T06:23:45;16.10;99.90
15203;DHT22;7702;51.046;5.184;2022-10-17T06:26:11;16.00;99.90
15203;DHT22;7702;51.046;5.184;2022-10-17T06:28:37;16.10;99.90
15203;DHT22;7702;51.046;5.184;2022-10-17T06:31:08;16.20;99.90
15203;DHT22;7702;51.046;5.184;2022-10-17T06:33:34;16.20;99.90
15203;DHT22;7702;51.046;5.184;2022-10-17T06:36:01;16.20;99.90
15203;DHT22;7702;51.046;5.184;2022-10-17T06:38:27;16.30;99.90
15203;DHT22;7702;51.046;5.184;2022-10-17T06:40:53;16.40;99.90
15203;DHT22;7702;51.046;5.184;2022-10-17T06:43:19;16.40;99.90
15203;DHT22;7702;51.046;5.184;2022-10-17T06:45:46;16.50;99.90
15203;DHT22;7702;51.046;5.184;2022-10-17T06:48:12;16.40;99.90
15203;DHT22;7702;51.046;5.184;2022-10-17T06:50:37;16.50;99.90
15203;DHT22;7702;51.046;5.184;2022-10-17T06:53:03;16.50;99.90
15203;DHT22;7702;51.046;5.184;2022-10-17T06:55:30;16.60;99.90
15203;DHT22;7702;51.046;5.184;2022-10-17T06:57:57;16.60;99.90
15203;DHT22;7702;51.046;5.184;2022-10-17T07:00:23;16.70;99.90
15203;DHT22;7702;51.046;5.184;2022-10-17T07:02:51;16.80;99.90
15203;DHT22;7702;51.046;5.184;2022-10-17T07:05:17;16.90;99.90
15203;DHT22;7702;51.046;5.184;2022-10-17T07:07:44;17.00;99.90
15203;DHT22;7702;51.046;5.184;2022-10-17T07:10:10;17.00;99.90
15203;DHT22;7702;51.046;5.184;2022-10-17T07:12:36;17.10;99.90
15203;DHT22;7702;51.046;5.184;2022-10-17T07:15:03;17.30;99.90
15203;DHT22;7702;51.046;5.184;2022-10-17T07:17:29;17.30;99.90
15203;DHT22;7702;51.046;5.184;2022-10-17T07:19:55;17.40;99.90
15203;DHT22;7702;51.046;5.184;2022-10-17T07:22:21;17.50;99.90
15203;DHT22;7702;51.046;5.184;2022-10-17T07:24:47;17.60;99.90
15203;DHT22;7702;51.046;5.184;2022-10-17T07:27:13;17.70;99.90
15203;DHT22;7702;51.046;5.184;2022-10-17T07:29:39;17.80;99.90
15203;DHT22;7702;51.046;5.184;2022-10-17T07:32:06;18.00;99.90
15203;DHT22;7702;51.046;5.184;2022-10-17T07:34:36;18.10;99.90
15203;DHT22;7702;51.046;5.184;2022-10-17T07:37:02;18.20;99.90
15203;DHT22;7702;51.046;5.184;2022-10-17T07:39:28;18.30;99.90
15203;DHT22;7702;51.046;5.184;2022-10-17T07:41:54;18.40;99.90
15203;DHT22;7702;51.046;5.184;2022-10-17T07:44:20;18.40;99.90
15203;DHT22;7702;51.046;5.184;2022-10-17T07:46:45;18.40;99.90
15203;DHT22;7702;51.046;5.184;2022-10-17T07:49:11;18.40;99.90
15203;DHT22;7702;51.046;5.184;2022-10-17T07:51:37;18.40;99.90
15203;DHT22;7702;51.046;5.184;2022-10-17T07:54:04;18.40;99.90
15203;DHT22;7702;51.046;5.184;2022-10-17T07:56:30;18.50;99.90
15203;DHT22;7702;51.046;5.184;2022-10-17T07:58:56;18.50;99.90
15203;DHT22;7702;51.046;5.184;2022-10-17T08:01:22;18.60;99.90
15203;DHT22;7702;51.046;5.184;2022-10-17T08:03:50;18.70;99.90
15203;DHT22;7702;51.046;5.184;2022-10-17T08:06:15;18.70;99.90
15203;DHT22;7702;51.046;5.184;2022-10-17T08:08:42;18.70;99.90
15203;DHT22;7702;51.046;5.184;2022-10-17T08:11:10;18.70;99.90
15203;DHT22;7702;51.046;5.184;2022-10-17T08:13:36;18.60;99.90
15203;DHT22;7702;51.046;5.184;2022-10-17T08:16:07;18.50;99.90
15203;DHT22;7702;51.046;5.184;2022-10-17T08:18:34;18.50;99.90
15203;DHT22;7702;51.046;5.184;2022-10-17T08:21:01;18.50;99.90
15203;DHT22;7702;51.046;5.184;2022-10-17T08:23:27;18.50;99.90
15203;DHT22;7702;51.046;5.184;2022-10-17T08:25:54;18.50;99.90
15203;DHT22;7702;51.046;5.184;2022-10-17T08:28:22;18.60;99.90
15203;DHT22;7702;51.046;5.184;2022-10-17T08:30:48;18.50;99.90
15203;DHT22;7702;51.046;5.184;2022-10-17T08:33:14;18.50;99.90
15203;DHT22;7702;51.046;5.184;2022-10-17T08:35:39;18.50;99.90
15203;DHT22;7702;51.046;5.184;2022-10-17T08:38:05;18.50;99.90
15203;DHT22;7702;51.046;5.184;2022-10-17T08:40:32;18.60;99.90
15203;DHT22;7702;51.046;5.184;2022-10-17T08:45:38;18.60;99.90
15203;DHT22;7702;51.046;5.184;2022-10-17T08:48:16;18.60;99.90
15203;DHT22;7702;51.046;5.184;2022-10-17T08:50:57;18.50;99.90
15203;DHT22;7702;51.046;5.184;2022-10-17T08:56:43;18.30;99.90
15203;DHT22;7702;51.046;5.184;2022-10-17T08:59:16;18.30;99.90
15203;DHT22;7702;51.046;5.184;2022-10-17T09:01:57;18.20;99.90
15203;DHT22;7702;51.046;5.184;2022-10-17T09:07:11;18.10;99.90
15203;DHT22;7702;51.046;5.184;2022-10-17T09:16:18;18.10;99.90
15203;DHT22;7702;51.046;5.184;2022-10-17T09:19:27;18.10;99.90
15203;DHT22;7702;51.046;5.184;2022-10-17T09:22:05;18.20;99.90
15203;DHT22;7702;51.046;5.184;2022-10-17T09:25:00;18.20;99.90
15203;DHT22;7702;51.046;5.184;2022-10-17T09:30:35;18.30;99.90
15203;DHT22;7702;51.046;5.184;2022-10-17T09:36:03;18.30;99.90
15203;DHT22;7702;51.046;5.184;2022-10-17T09:38:39;18.30;99.90
15203;DHT22;7702;51.046;5.184;2022-10-17T09:41:16;18.30;99.90
15203;DHT22;7702;51.046;5.184;2022-10-17T09:43:42;18.30;99.90
15203;DHT22;7702;51.046;5.184;2022-10-17T09:46:35;18.20;99.90
15203;DHT22;7702;51.046;5.184;2022-10-17T09:49:09;18.20;99.90
15203;DHT22;7702;51.046;5.184;2022-10-17T09:51:37;18.20;99.90
15203;DHT22;7702;51.046;5.184;2022-10-17T09:54:16;18.10;99.90
15203;DHT22;7702;51.046;5.184;2022-10-17T09:57:18;18.00;99.90
15203;DHT22;7702;51.046;5.184;2022-10-17T09:59:57;18.00;99.90
15203;DHT22;7702;51.046;5.184;2022-10-17T10:02:25;17.90;99.90
15203;DHT22;7702;51.046;5.184;2022-10-17T10:05:13;18.00;99.90
15203;DHT22;7702;51.046;5.184;2022-10-17T10:07:41;18.00;99.90
15203;DHT22;7702;51.046;5.184;2022-10-17T10:10:25;18.00;99.90
15203;DHT22;7702;51.046;5.184;2022-10-17T10:13:20;18.00;99.90
15203;DHT22;7702;51.046;5.184;2022-10-17T10:15:50;18.10;99.90
15203;DHT22;7702;51.046;5.184;2022-10-17T10:18:34;18.10;99.90
15203;DHT22;7702;51.046;5.184;2022-10-17T10:23:42;18.30;99.90
15203;DHT22;7702;51.046;5.184;2022-10-17T10:26:19;18.30;99.90
15203;DHT22;7702;51.046;5.184;2022-10-17T10:28:55;18.30;99.90
15203;DHT22;7702;51.046;5.184;2022-10-17T10:33:55;18.40;99.90
15203;DHT22;7702;51.046;5.184;2022-10-17T10:36:22;18.30;99.90
15203;DHT22;7702;51.046;5.184;2022-10-17T10:38:55;18.40;99.90
15203;DHT22;7702;51.046;5.184;2022-10-17T10:41:22;18.50;99.90
15203;DHT22;7702;51.046;5.184;2022-10-17T10:43:49;18.60;99.90
15203;DHT22;7702;51.046;5.184;2022-10-17T10:46:22;18.70;99.90
15203;DHT22;7702;51.046;5.184;2022-10-17T10:48:54;18.70;99.90
15203;DHT22;7702;51.046;5.184;2022-10-17T10:51:37;18.70;99.90
15203;DHT22;7702;51.046;5.184;2022-10-17T10:54:18;18.70;99.90
15203;DHT22;7702;51.046;5.184;2022-10-17T10:56:50;18.80;99.90
15203;DHT22;7702;51.046;5.184;2022-10-17T10:59:28;18.80;99.90
15203;DHT22;7702;51.046;5.184;2022-10-17T11:13:09;19.20;99.90
15203;DHT22;7702;51.046;5.184;2022-10-17T11:15:47;19.30;99.90
15203;DHT22;7702;51.046;5.184;2022-10-17T11:18:44;19.30;99.90
15203;DHT22;7702;51.046;5.184;2022-10-17T11:21:47;19.30;99.90
15203;DHT22;7702;51.046;5.184;2022-10-17T11:24:49;19.20;99.90
15203;DHT22;7702;51.046;5.184;2022-10-17T11:27:22;19.20;99.90
15203;DHT22;7702;51.046;5.184;2022-10-17T11:29:48;19.20;99.90
15203;DHT22;7702;51.046;5.184;2022-10-17T11:35:33;19.20;99.90
15203;DHT22;7702;51.046;5.184;2022-10-17T11:40:57;19.30;99.90
15203;DHT22;7702;51.046;5.184;2022-10-17T11:43:56;19.40;99.90
15203;DHT22;7702;51.046;5.184;2022-10-17T11:46:25;19.50;99.90
15203;DHT22;7702;51.046;5.184;2022-10-17T11:48:59;19.50;99.90
15203;DHT22;7702;51.046;5.184;2022-10-17T11:51:29;19.50;99.90
15203;DHT22;7702;51.046;5.184;2022-10-17T11:54:10;19.50;99.90
15203;DHT22;7702;51.046;5.184;2022-10-17T12:00:03;19.40;99.90
15203;DHT22;7702;51.046;5.184;2022-10-17T12:02:46;19.50;99.90
15203;DHT22;7702;51.046;5.184;2022-10-17T12:05:39;19.50;99.90
15203;DHT22;7702;51.046;5.184;2022-10-17T12:08:19;19.50;99.90
15203;DHT22;7702;51.046;5.184;2022-10-17T12:11:16;19.50;99.90
15203;DHT22;7702;51.046;5.184;2022-10-17T12:13:54;19.40;99.90
15203;DHT22;7702;51.046;5.184;2022-10-17T12:22:01;19.40;99.90
15203;DHT22;7702;51.046;5.184;2022-10-17T12:24:44;19.30;99.90
15203;DHT22;7702;51.046;5.184;2022-10-17T12:27:34;19.20;99.90
15203;DHT22;7702;51.046;5.184;2022-10-17T12:33:19;19.10;99.90
15203;DHT22;7702;51.046;5.184;2022-10-17T12:38:44;19.10;99.90
15203;DHT22;7702;51.046;5.184;2022-10-17T12:41:10;19.10;99.90
15203;DHT22;7702;51.046;5.184;2022-10-17T12:43:51;19.00;99.90
15203;DHT22;7702;51.046;5.184;2022-10-17T12:49:37;18.90;99.90
15203;DHT22;7702;51.046;5.184;2022-10-17T12:57:53;18.80;99.90
15203;DHT22;7702;51.046;5.184;2022-10-17T13:00:34;18.80;99.90
15203;DHT22;7702;51.046;5.184;2022-10-17T13:03:29;18.80;99.90
15203;DHT22;7702;51.046;5.184;2022-10-17T13:06:00;18.80;99.90
15203;DHT22;7702;51.046;5.184;2022-10-17T13:08:27;18.80;99.90
15203;DHT22;7702;51.046;5.184;2022-10-17T13:10:54;18.80;99.90
15203;DHT22;7702;51.046;5.184;2022-10-17T13:13:41;18.80;99.90
15203;DHT22;7702;51.046;5.184;2022-10-17T13:16:07;18.90;99.90
15203;DHT22;7702;51.046;5.184;2022-10-17T13:18:33;18.80;99.90
15203;DHT22;7702;51.046;5.184;2022-10-17T13:21:06;18.90;99.90
15203;DHT22;7702;51.046;5.184;2022-10-17T13:23:34;18.90;99.90
15203;DHT22;7702;51.046;5.184;2022-10-17T13:28:31;18.90;99.90
15203;DHT22;7702;51.046;5.184;2022-10-17T13:30:56;18.80;99.90
15203;DHT22;7702;51.046;5.184;2022-10-17T13:33:41;18.90;99.90
15203;DHT22;7702;51.046;5.184;2022-10-17T13:36:13;18.80;99.90
15203;DHT22;7702;51.046;5.184;2022-10-17T13:38:40;18.80;99.90
15203;DHT22;7702;51.046;5.184;2022-10-17T13:41:11;18.70;99.90
15203;DHT22;7702;51.046;5.184;2022-10-17T13:43:38;18.70;99.90
15203;DHT22;7702;51.046;5.184;2022-10-17T13:46:04;18.70;99.90
15203;DHT22;7702;51.046;5.184;2022-10-17T13:48:34;18.70;99.90
15203;DHT22;7702;51.046;5.184;2022-10-17T13:51:02;18.70;99.90
15203;DHT22;7702;51.046;5.184;2022-10-17T13:53:37;18.80;99.90
15203;DHT22;7702;51.046;5.184;2022-10-17T13:56:15;18.90;99.90
15203;DHT22;7702;51.046;5.184;2022-10-17T13:58:47;19.00;99.90
15203;DHT22;7702;51.046;5.184;2022-10-17T14:01:14;19.00;99.90
15203;DHT22;7702;51.046;5.184;2022-10-17T14:03:44;19.00;99.90
15203;DHT22;7702;51.046;5.184;2022-10-17T14:06:21;19.10;99.90
15203;DHT22;7702;51.046;5.184;2022-10-17T14:08:57;19.00;99.90
15203;DHT22;7702;51.046;5.184;2022-10-17T14:11:41;19.00;99.90
15203;DHT22;7702;51.046;5.184;2022-10-17T14:14:33;18.90;99.90
15203;DHT22;7702;51.046;5.184;2022-10-17T14:16:59;19.00;99.90
15203;DHT22;7702;51.046;5.184;2022-10-17T14:19:27;19.00;99.90
15203;DHT22;7702;51.046;5.184;2022-10-17T14:21:55;19.00;99.90
15203;DHT22;7702;51.046;5.184;2022-10-17T14:24:38;19.10;99.90
15203;DHT22;7702;51.046;5.184;2022-10-17T14:27:29;19.20;99.90
15203;DHT22;7702;51.046;5.184;2022-10-17T14:30:00;19.20;99.90
15203;DHT22;7702;51.046;5.184;2022-10-17T14:32:32;19.20;99.90
15203;DHT22;7702;51.046;5.184;2022-10-17T14:35:00;19.10;99.90
15203;DHT22;7702;51.046;5.184;2022-10-17T14:40:06;19.00;99.90
15203;DHT22;7702;51.046;5.184;2022-10-17T14:42:38;19.00;99.90
15203;DHT22;7702;51.046;5.184;2022-10-17T14:45:12;18.90;99.90
15203;DHT22;7702;51.046;5.184;2022-10-17T14:47:39;18.90;99.90
15203;DHT22;7702;51.046;5.184;2022-10-17T14:52:36;18.80;99.90
15203;DHT22;7702;51.046;5.184;2022-10-17T14:55:23;18.70;99.90
15203;DHT22;7702;51.046;5.184;2022-10-17T14:57:49;18.70;99.90
15203;DHT22;7702;51.046;5.184;2022-10-17T15:00:16;18.70;99.90
15203;DHT22;7702;51.046;5.184;2022-10-17T15:02:43;18.70;99.90
15203;DHT22;7702;51.046;5.184;2022-10-17T15:05:09;18.80;99.90
15203;DHT22;7702;51.046;5.184;2022-10-17T15:07:35;18.80;99.90
15203;DHT22;7702;51.046;5.184;2022-10-17T15:10:00;18.80;99.90
15203;DHT22;7702;51.046;5.184;2022-10-17T15:12:26;18.70;99.90
15203;DHT22;7702;51.046;5.184;2022-10-17T15:14:52;18.70;99.90
15203;DHT22;7702;51.046;5.184;2022-10-17T15:19:48;18.70;99.90
15203;DHT22;7702;51.046;5.184;2022-10-17T15:22:15;18.70;99.90
15203;DHT22;7702;51.046;5.184;2022-10-17T15:24:41;18.70;99.90
15203;DHT22;7702;51.046;5.184;2022-10-17T15:27:20;18.70;99.90
15203;DHT22;7702;51.046;5.184;2022-10-17T15:29:46;18.70;99.90
15203;DHT22;7702;51.046;5.184;2022-10-17T15:32:12;18.70;99.90
15203;DHT22;7702;51.046;5.184;2022-10-17T15:34:38;18.70;99.90
15203;DHT22;7702;51.046;5.184;2022-10-17T15:37:05;18.70;99.90
15203;DHT22;7702;51.046;5.184;2022-10-17T15:39:32;18.60;99.90
15203;DHT22;7702;51.046;5.184;2022-10-17T15:41:58;18.60;99.90
15203;DHT22;7702;51.046;5.184;2022-10-17T15:44:24;18.60;99.90
15203;DHT22;7702;51.046;5.184;2022-10-17T15:46:50;18.50;99.90
15203;DHT22;7702;51.046;5.184;2022-10-17T15:49:17;18.50;99.90
15203;DHT22;7702;51.046;5.184;2022-10-17T15:51:44;18.50;99.90
15203;DHT22;7702;51.046;5.184;2022-10-17T15:54:10;18.40;99.90
15203;DHT22;7702;51.046;5.184;2022-10-17T15:56:39;18.40;99.90
15203;DHT22;7702;51.046;5.184;2022-10-17T15:59:10;18.30;99.90
15203;DHT22;7702;51.046;5.184;2022-10-17T16:01:37;18.40;99.90
15203;DHT22;7702;51.046;5.184;2022-10-17T16:04:03;18.30;99.90
15203;DHT22;7702;51.046;5.184;2022-10-17T16:06:29;18.30;99.90
15203;DHT22;7702;51.046;5.184;2022-10-17T16:08:55;18.20;99.90
15203;DHT22;7702;51.046;5.184;2022-10-17T16:11:34;18.20;99.90
15203;DHT22;7702;51.046;5.184;2022-10-17T16:14:03;18.20;99.90
15203;DHT22;7702;51.046;5.184;2022-10-17T16:16:29;18.20;99.90
15203;DHT22;7702;51.046;5.184;2022-10-17T16:18:55;18.20;99.90
15203;DHT22;7702;51.046;5.184;2022-10-17T16:21:24;18.10;99.90
15203;DHT22;7702;51.046;5.184;2022-10-17T16:23:50;18.10;99.90
15203;DHT22;7702;51.046;5.184;2022-10-17T16:26:16;18.10;99.90
15203;DHT22;7702;51.046;5.184;2022-10-17T16:28:43;18.10;99.90
15203;DHT22;7702;51.046;5.184;2022-10-17T16:31:22;18.10;99.90
15203;DHT22;7702;51.046;5.184;2022-10-17T16:33:51;18.10;99.90
15203;DHT22;7702;51.046;5.184;2022-10-17T16:36:17;18.00;99.90
15203;DHT22;7702;51.046;5.184;2022-10-17T16:38:43;18.00;99.90
15203;DHT22;7702;51.046;5.184;2022-10-17T16:41:29;18.00;99.90
15203;DHT22;7702;51.046;5.184;2022-10-17T16:43:58;17.90;99.90
15203;DHT22;7702;51.046;5.184;2022-10-17T16:46:25;17.90;99.90
15203;DHT22;7702;51.046;5.184;2022-10-17T16:48:51;17.80;99.90
15203;DHT22;7702;51.046;5.184;2022-10-17T16:51:18;17.70;99.90
15203;DHT22;7702;51.046;5.184;2022-10-17T16:53:49;17.70;99.90
15203;DHT22;7702;51.046;5.184;2022-10-17T16:56:20;17.80;99.90
15203;DHT22;7702;51.046;5.184;2022-10-17T16:58:47;17.70;99.90
15203;DHT22;7702;51.046;5.184;2022-10-17T17:01:16;17.60;99.90
15203;DHT22;7702;51.046;5.184;2022-10-17T17:03:44;17.60;99.90
15203;DHT22;7702;51.046;5.184;2022-10-17T17:06:19;17.60;99.90
15203;DHT22;7702;51.046;5.184;2022-10-17T17:08:45;17.50;99.90
15203;DHT22;7702;51.046;5.184;2022-10-17T17:11:12;17.50;99.90
15203;DHT22;7702;51.046;5.184;2022-10-17T17:13:38;17.40;99.90
15203;DHT22;7702;51.046;5.184;2022-10-17T17:16:13;17.40;99.90
15203;DHT22;7702;51.046;5.184;2022-10-17T17:18:40;17.40;99.90
15203;DHT22;7702;51.046;5.184;2022-10-17T17:21:07;17.30;99.90
15203;DHT22;7702;51.046;5.184;2022-10-17T17:23:35;17.20;99.90
15203;DHT22;7702;51.046;5.184;2022-10-17T17:26:06;17.20;99.90
15203;DHT22;7702;51.046;5.184;2022-10-17T17:28:33;17.10;99.90
15203;DHT22;7702;51.046;5.184;2022-10-17T17:30:59;17.10;99.90
15203;DHT22;7702;51.046;5.184;2022-10-17T17:33:26;17.10;99.90
15203;DHT22;7702;51.046;5.184;2022-10-17T17:35:58;17.00;99.90
15203;DHT22;7702;51.046;5.184;2022-10-17T17:38:25;17.00;99.90
15203;DHT22;7702;51.046;5.184;2022-10-17T17:40:51;17.00;99.90
15203;DHT22;7702;51.046;5.184;2022-10-17T17:43:17;16.90;99.90
15203;DHT22;7702;51.046;5.184;2022-10-17T17:45:43;16.90;99.90
15203;DHT22;7702;51.046;5.184;2022-10-17T17:48:09;16.90;99.90
15203;DHT22;7702;51.046;5.184;2022-10-17T17:50:36;16.80;99.90
15203;DHT22;7702;51.046;5.184;2022-10-17T17:53:03;16.80;99.90
15203;DHT22;7702;51.046;5.184;2022-10-17T17:55:29;16.80;99.90
15203;DHT22;7702;51.046;5.184;2022-10-17T17:57:54;16.70;99.90